Time;durP1;ratioP1;P1;durP2;ratioP2;P2;SDS_P1;SDS_P2;PMS_P1;PMS_P2;Temp;Humidity;BMP_temperature;BMP_pressure;BME280_temperature;BME280_humidity;BME280_pressure;Samples;Min_cycle;Max_cycle;Signal;HPM_P1;HPM_P2
2022/04/09 00:02:24;;;;;;;0.20;0.20;;;;;;;19.36;38.99;99910.41;5094873;28;20479;-29
2022/04/09 00:04:50;;;;;;;0.20;0.20;;;;;;;19.34;39.03;99913.44;5095789;28;20367;-29
2022/04/09 00:07:16;;;;;;;0.20;0.20;;;;;;;19.34;39.04;99909.88;5098001;28;20058;-30
2022/04/09 00:09:41;;;;;;;0.20;0.20;;;;;;;19.34;39.29;99920.91;5077088;28;20052;-30
2022/04/09 00:12:08;;;;;;;0.20;0.20;;;;;;;19.34;39.17;99924.47;5100076;28;20050;-29
2022/04/09 00:14:34;;;;;;;0.20;0.20;;;;;;;19.35;39.12;99939.13;5098582;28;20117;-32
2022/04/09 00:17:00;;;;;;;0.20;0.20;;;;;;;19.35;38.94;99937.19;5099171;28;20174;-32
2022/04/09 00:19:25;;;;;;;0.20;0.20;;;;;;;19.34;39.12;99946.56;5075451;28;20035;-30
2022/04/09 00:21:51;;;;;;;0.20;0.20;;;;;;;19.33;39.02;99944.94;5099909;28;20042;-29
2022/04/09 00:24:17;;;;;;;0.20;0.20;;;;;;;19.34;39.00;99949.34;5097503;28;20085;-29
2022/04/09 00:26:43;;;;;;;0.20;0.20;;;;;;;19.34;39.02;99959.56;5096312;28;20070;-31
2022/04/09 00:29:08;;;;;;;0.20;0.20;;;;;;;19.34;39.10;99959.56;5091351;28;20043;-29
2022/04/09 00:31:34;;;;;;;0.20;0.20;;;;;;;19.33;39.27;99969.78;5095400;28;20044;-29
2022/04/09 00:34:00;;;;;;;0.30;0.30;;;;;;;19.34;39.16;99974.19;5094735;28;20040;-30
2022/04/09 00:36:26;;;;;;;0.20;0.20;;;;;;;19.34;39.33;99984.41;5092215;28;20541;-30
2022/04/09 00:38:52;;;;;;;0.20;0.20;;;;;;;19.34;39.06;99985.22;5097646;28;20039;-30
2022/04/09 00:41:18;;;;;;;0.20;0.20;;;;;;;19.33;39.27;99988.28;5100331;28;20047;-30
2022/04/09 00:43:43;;;;;;;0.20;0.20;;;;;;;19.33;39.13;99991.06;5085998;28;20047;-30
2022/04/09 00:46:12;;;;;;;0.20;0.20;;;;;;;19.33;39.25;99994.63;5097592;28;20055;-31
2022/04/09 00:48:37;;;;;;;;;;;;;;;19.33;39.40;100002.91;5076828;28;20036;-30
2022/04/09 00:51:04;;;;;;;0.20;0.20;;;;;;;19.32;39.15;100006.00;5101133;28;19927;-29
2022/04/09 00:53:35;;;;;;;0.20;0.20;;;;;;;19.32;39.18;100015.09;5083321;28;20063;-29
2022/04/09 00:56:17;;;;;;;0.20;0.20;;;;;;;19.33;39.27;100018.66;5084145;28;20126;-30
2022/04/09 00:58:48;;;;;;;0.20;0.20;;;;;;;19.33;39.32;100018.66;5101640;28;20048;-29
2022/04/09 01:01:14;;;;;;;0.20;0.20;;;;;;;19.32;39.18;100023.38;5094813;28;20052;-30
2022/04/09 01:03:40;;;;;;;0.20;0.20;;;;;;;19.32;39.40;100025.31;5102119;28;20039;-31
2022/04/09 01:06:08;;;;;;;0.20;0.20;;;;;;;19.32;39.29;100039.13;5096719;28;20134;-29
2022/04/09 01:08:34;;;;;;;0.20;0.20;;;;;;;19.32;39.08;100045.47;5098669;28;20501;-29
2022/04/09 01:10:59;;;;;;;0.20;0.20;;;;;;;19.32;39.23;100041.88;5097074;28;20162;-31
2022/04/09 01:13:25;;;;;;;0.20;0.20;;;;;;;19.32;39.23;100052.91;5100682;28;20046;-30
2022/04/09 01:15:51;;;;;;;0.20;0.20;;;;;;;19.32;39.39;100056.50;5100834;28;20039;-30
2022/04/09 01:18:17;;;;;;;0.20;0.20;;;;;;;19.32;39.33;100058.44;5098133;28;20059;-30
2022/04/09 01:20:43;;;;;;;0.20;0.20;;;;;;;19.33;39.38;100060.88;5082594;28;20063;-32
2022/04/09 01:23:08;;;;;;;0.20;0.20;;;;;;;19.30;39.43;100067.84;5099301;28;20396;-31
2022/04/09 01:25:34;;;;;;;0.20;0.20;;;;;;;19.31;39.11;100076.94;5099260;28;20047;-30
2022/04/09 01:28:01;;;;;;;0.20;0.20;;;;;;;19.30;39.23;100076.13;5101637;28;20047;-29
2022/04/09 01:30:26;;;;;;;0.20;0.20;;;;;;;19.30;39.43;100078.91;5100855;28;20085;-29
2022/04/09 01:32:52;;;;;;;0.20;0.20;;;;;;;19.30;39.28;100084.41;5097084;28;20572;-30
2022/04/09 01:35:18;;;;;;;0.20;0.20;;;;;;;19.30;39.33;100095.47;5096521;28;20105;-30
2022/04/09 01:37:43;;;;;;;0.20;0.20;;;;;;;19.33;39.19;100104.25;5101638;28;20043;-30
2022/04/09 01:40:09;;;;;;;0.20;0.20;;;;;;;19.30;39.15;100100.97;5098763;28;20054;-29
2022/04/09 01:42:36;;;;;;;0.20;0.20;;;;;;;19.30;39.15;100103.75;5097019;28;20055;-31
2022/04/09 01:45:04;;;;;;;0.20;0.20;;;;;;;19.32;39.08;100113.66;5099922;28;20075;-29
2022/04/09 01:47:30;;;;;;;0.20;0.20;;;;;;;19.32;39.31;100121.94;5093514;28;20132;-32
2022/04/09 01:49:56;;;;;;;0.20;0.20;;;;;;;19.31;39.36;100121.13;5097985;28;20044;-31
2022/04/09 01:52:21;;;;;;;0.20;0.20;;;;;;;19.31;39.34;100126.66;5098143;28;20044;-31
2022/04/09 01:54:47;;;;;;;0.20;0.20;;;;;;;19.30;39.28;100134.13;5096377;28;20036;-30
2022/04/09 01:57:15;;;;;;;0.20;0.20;;;;;;;19.29;39.34;100134.38;5097507;28;20143;-31
2022/04/09 01:59:43;;;;;;;0.20;0.20;;;;;;;19.30;39.17;100141.56;5096179;28;20486;-31
2022/04/09 02:02:09;;;;;;;0.20;0.20;;;;;;;19.28;39.36;100147.38;5083075;28;20072;-29
2022/04/09 02:04:35;;;;;;;0.20;0.20;;;;;;;19.28;39.22;100141.03;5099371;28;20040;-29
2022/04/09 02:07:00;;;;;;;0.20;0.20;;;;;;;19.29;39.13;100153.72;5083825;28;20047;-29
2022/04/09 02:09:26;;;;;;;0.20;0.20;;;;;;;19.29;39.42;100149.00;5095172;28;20408;-29
2022/04/09 02:11:52;;;;;;;0.20;0.20;;;;;;;19.28;39.43;100163.94;5097433;28;20054;-30
2022/04/09 02:14:18;;;;;;;0.30;0.30;;;;;;;19.29;39.32;100154.53;5077146;28;20047;-29
2022/04/09 02:16:44;;;;;;;0.20;0.20;;;;;;;19.29;39.11;100162.81;5091283;28;20054;-30
2022/04/09 02:19:10;;;;;;;0.20;0.20;;;;;;;19.30;39.40;100158.97;5098414;28;20155;-29
2022/04/09 02:21:36;;;;;;;0.20;0.20;;;;;;;19.28;39.34;100168.66;5099377;28;20051;-30
2022/04/09 02:24:02;;;;;;;0.20;0.20;;;;;;;19.28;39.45;100172.22;5088164;28;20060;-29
2022/04/09 02:26:28;;;;;;;0.30;0.30;;;;;;;19.30;39.33;100183.00;5097355;28;20117;-29
2022/04/09 02:28:53;;;;;;;0.20;0.20;;;;;;;19.30;39.12;100185.75;5064833;28;20040;-30
2022/04/09 02:31:20;;;;;;;0.20;0.20;;;;;;;19.28;39.50;100185.22;5100200;28;20058;-30
2022/04/09 02:33:46;;;;;;;0.20;0.20;;;;;;;19.28;39.30;100196.25;5097806;28;20481;-30
2022/04/09 02:36:12;;;;;;;0.20;0.20;;;;;;;19.29;39.50;100208.94;5095004;28;20136;-31
2022/04/09 02:38:38;;;;;;;0.28;0.28;;;;;;;19.28;39.06;100212.81;5090913;28;20118;-30
2022/04/09 02:41:04;;;;;;;0.20;0.20;;;;;;;19.29;39.35;100220.78;5097763;28;20121;-29
2022/04/09 02:43:30;;;;;;;0.20;0.20;;;;;;;19.28;39.18;100221.09;5078137;28;20474;-29
2022/04/09 02:45:56;;;;;;;0.20;0.20;;;;;;;19.28;39.38;100227.44;5099506;28;20055;-31
2022/04/09 02:48:21;;;;;;;0.20;0.20;;;;;;;19.28;39.26;100224.69;5098101;28;20048;-30
2022/04/09 02:50:48;;;;;;;0.20;0.20;;;;;;;19.29;39.14;100239.28;5094155;28;20439;-30
2022/04/09 02:53:14;;;;;;;0.20;0.20;;;;;;;19.27;39.45;100236.84;5098662;28;20460;-29
2022/04/09 02:55:40;;;;;;;0.20;0.20;;;;;;;19.28;39.27;100232.97;5099886;28;20052;-29
2022/04/09 02:58:05;;;;;;;0.20;0.20;;;;;;;19.28;39.20;100241.25;5079509;28;20451;-29
2022/04/09 03:00:31;;;;;;;0.20;0.20;;;;;;;19.28;39.35;100246.75;5093672;28;20047;-31
2022/04/09 03:02:58;;;;;;;0.20;0.20;;;;;;;19.28;39.33;100251.47;5094111;28;20044;-30
2022/04/09 03:05:24;;;;;;;0.22;0.22;;;;;;;19.28;39.48;100257.81;5093706;28;20070;-32
2022/04/09 03:07:49;;;;;;;0.20;0.20;;;;;;;19.27;39.29;100258.13;5102065;28;20048;-29
2022/04/09 03:10:15;;;;;;;0.30;0.30;;;;;;;19.27;39.29;100266.41;5100401;28;20442;-29
2022/04/09 03:12:43;;;;;;;0.20;0.20;;;;;;;19.27;39.22;100271.91;5085822;28;20101;-29
2022/04/09 03:15:09;;;;;;;0.20;0.20;;;;;;;19.27;39.39;100269.97;5100921;28;20039;-29
2022/04/09 03:17:34;;;;;;;0.20;0.20;;;;;;;19.27;39.33;100272.72;5078953;28;20047;-30
2022/04/09 03:20:00;;;;;;;0.20;0.20;;;;;;;19.28;39.38;100276.31;5095078;28;20047;-30
2022/04/09 03:22:28;;;;;;;0.20;0.20;;;;;;;19.27;39.31;100283.78;5098022;28;20364;-31
2022/04/09 03:24:58;;;;;;;0.20;0.20;;;;;;;19.27;39.21;100281.03;5084039;28;20375;-30
2022/04/09 03:27:24;;;;;;;0.20;0.20;;;;;;;19.27;39.28;100285.72;5097646;28;20075;-31
2022/04/09 03:29:50;;;;;;;0.20;0.20;;;;;;;19.28;39.17;100287.34;5081617;28;20442;-31
2022/04/09 03:32:16;;;;;;;0.20;0.20;;;;;;;19.27;39.30;100286.53;5096870;28;20055;-31
2022/04/09 03:34:42;;;;;;;0.10;0.10;;;;;;;19.27;39.38;100291.25;5099105;28;20206;-31
2022/04/09 03:37:08;;;;;;;0.20;0.20;;;;;;;19.26;39.24;100293.19;5095757;28;20541;-29
2022/04/09 03:39:38;;;;;;;0.20;0.20;;;;;;;19.26;39.41;100290.44;5095434;28;20051;-28
2022/04/09 03:42:04;;;;;;;0.20;0.20;;;;;;;19.26;39.39;100306.16;5065197;28;20044;-28
2022/04/09 03:44:43;;;;;;;0.20;0.20;;;;;;;19.26;39.49;100308.94;5081821;28;20040;-27
2022/04/09 03:47:09;;;;;;;0.20;0.20;;;;;;;19.27;39.19;100318.84;5095812;28;20046;-28
2022/04/09 03:49:35;;;;;;;0.20;0.20;;;;;;;19.27;39.51;100322.44;5092386;28;20066;-29
2022/04/09 03:52:00;;;;;;;0.20;0.20;;;;;;;19.27;39.26;100327.94;5099585;28;20482;-33
2022/04/09 03:54:26;;;;;;;0.20;0.20;;;;;;;19.26;39.61;100331.03;5098251;28;20040;-29
2022/04/09 03:56:52;;;;;;;0.20;0.20;;;;;;;19.26;39.22;100345.63;5099311;28;20425;-29
2022/04/09 03:59:19;;;;;;;0.20;0.20;;;;;;;19.25;39.22;100332.94;5095353;28;20143;-30
2022/04/09 04:01:47;;;;;;;0.20;0.20;;;;;;;19.26;39.36;100339.28;5096353;28;20078;-31
2022/04/09 04:04:14;;;;;;;0.20;0.20;;;;;;;19.25;39.28;100343.97;5097933;28;20048;-30
2022/04/09 04:06:41;;;;;;;0.20;0.20;;;;;;;19.27;39.39;100354.75;5088901;28;20650;-29
2022/04/09 04:09:07;;;;;;;0.20;0.20;;;;;;;19.27;39.22;100351.97;5095229;28;20070;-30
2022/04/09 04:11:33;;;;;;;0.20;0.20;;;;;;;19.27;39.48;100354.75;5078235;28;20569;-29
2022/04/09 04:13:58;;;;;;;0.20;0.20;;;;;;;19.26;39.44;100339.28;5085499;28;20044;-29
2022/04/09 04:16:24;;;;;;;0.20;0.20;;;;;;;19.27;39.34;100349.22;5102897;28;20052;-29
2022/04/09 04:18:50;;;;;;;0.20;0.20;;;;;;;19.25;39.30;100346.72;5101918;28;20059;-31
2022/04/09 04:21:15;;;;;;;0.20;0.20;;;;;;;19.25;39.58;100355.00;5096929;28;20377;-30
2022/04/09 04:23:41;;;;;;;0.20;0.20;;;;;;;19.25;39.27;100357.78;5099428;28;20387;-30
2022/04/09 04:26:06;;;;;;;0.20;0.20;;;;;;;19.26;39.49;100364.97;5100952;28;20123;-29
2022/04/09 04:28:32;;;;;;;0.20;0.20;;;;;;;19.25;39.50;100365.25;5080525;28;20109;-31
2022/04/09 04:30:58;;;;;;;0.20;0.20;;;;;;;19.24;39.16;100375.47;5080879;28;20050;-29
2022/04/09 04:33:24;;;;;;;0.20;0.20;;;;;;;19.25;39.33;100385.38;5102325;28;20524;-30
2022/04/09 04:35:50;;;;;;;0.20;0.20;;;;;;;19.24;39.29;100380.97;5101065;28;20035;-30
2022/04/09 04:38:16;;;;;;;0.20;0.20;;;;;;;19.25;39.52;100388.13;5100970;28;20116;-31
2022/04/09 04:40:41;;;;;;;0.20;0.20;;;;;;;19.23;39.46;100390.38;5083322;28;20048;-32
2022/04/09 04:43:07;;;;;;;0.20;0.20;;;;;;;19.23;39.46;100398.66;5082463;28;20044;-31
2022/04/09 04:45:33;;;;;;;0.20;0.20;;;;;;;19.25;39.52;100410.22;5099520;28;20051;-31
2022/04/09 04:47:58;;;;;;;0.20;0.20;;;;;;;19.24;39.50;100416.88;5099105;28;20067;-29
2022/04/09 04:50:25;;;;;;;0.20;0.20;;;;;;;19.23;39.57;100415.22;5096971;28;20055;-29
2022/04/09 04:52:51;;;;;;;0.20;0.20;;;;;;;19.25;39.56;100420.44;5097942;28;20520;-29
2022/04/09 04:55:17;;;;;;;0.20;0.20;;;;;;;19.24;39.23;100424.34;5098505;28;20466;-31
2022/04/09 04:57:45;;;;;;;0.20;0.20;;;;;;;19.24;39.34;100430.66;5099925;28;20066;-31
2022/04/09 05:00:11;;;;;;;0.20;0.20;;;;;;;19.24;39.34;100430.66;5084669;28;20131;-29
2022/04/09 05:02:37;;;;;;;0.20;0.20;;;;;;;19.23;39.37;100429.03;5098763;28;20079;-30
2022/04/09 05:05:04;;;;;;;0.20;0.20;;;;;;;19.25;39.47;100442.53;5082291;28;20052;-30
2022/04/09 05:07:46;;;;;;;0.20;0.20;;;;;;;19.24;39.49;100447.25;5096936;28;20079;-30
2022/04/09 05:10:14;;;;;;;0.20;0.20;;;;;;;19.24;39.57;100451.94;5101158;28;20079;-30
2022/04/09 05:12:41;;;;;;;0.20;0.20;;;;;;;19.23;39.50;100459.41;5100489;28;20144;-30
2022/04/09 05:15:09;;;;;;;0.20;0.20;;;;;;;19.24;39.41;100462.97;5100905;28;20346;-29
2022/04/09 05:17:34;;;;;;;0.20;0.20;;;;;;;19.21;39.58;100461.66;5084676;28;20135;-30
2022/04/09 05:20:02;;;;;;;0.20;0.20;;;;;;;19.23;39.53;100464.09;5087118;28;20070;-29
2022/04/09 05:22:28;;;;;;;0.20;0.20;;;;;;;19.22;39.33;100463.28;5065906;28;20071;-29
2022/04/09 05:24:54;;;;;;;0.20;0.20;;;;;;;19.23;39.45;100470.44;5102495;28;20432;-30
2022/04/09 05:27:21;;;;;;;0.20;0.20;;;;;;;19.22;39.41;100471.56;5102783;28;20121;-30
2022/04/09 05:29:46;;;;;;;0.20;0.20;;;;;;;19.21;39.21;100461.66;5077506;28;20070;-30
2022/04/09 05:32:12;;;;;;;0.20;0.20;;;;;;;19.23;39.41;100464.94;5096244;28;20036;-30
2022/04/09 05:34:37;;;;;;;0.20;0.20;;;;;;;19.22;39.50;100468.81;5101236;28;20048;-31
2022/04/09 05:37:03;;;;;;;0.20;0.20;;;;;;;19.22;39.43;100471.56;5099819;28;20454;-30
2022/04/09 05:39:29;;;;;;;0.20;0.20;;;;;;;19.21;39.16;100483.72;5077816;28;20479;-29
2022/04/09 05:41:55;;;;;;;0.20;0.20;;;;;;;19.22;39.57;100490.06;5102483;28;20135;-30
2022/04/09 05:44:20;;;;;;;0.20;0.20;;;;;;;19.21;39.26;100493.94;5084721;28;21194;-32
2022/04/09 05:46:46;;;;;;;0.20;0.20;;;;;;;19.22;39.48;100499.16;5093560;28;20056;-30
2022/04/09 05:49:12;;;;;;;0.20;0.20;;;;;;;19.23;39.25;100500.81;5096010;28;20735;-31
2022/04/09 05:51:37;;;;;;;0.20;0.20;;;;;;;19.22;39.35;100509.41;5098390;28;20047;-29
2022/04/09 05:54:03;;;;;;;0.20;0.20;;;;;;;19.22;39.49;100517.69;5100980;28;20044;-29
2022/04/09 05:56:29;;;;;;;0.30;0.30;;;;;;;19.22;39.37;100524.03;5077907;28;20106;-32
2022/04/09 05:58:55;;;;;;;0.20;0.20;;;;;;;19.21;39.53;100521.53;5097919;28;20048;-30
2022/04/09 06:01:40;;;;;;;0.20;0.20;;;;;;;19.21;39.49;100524.28;5084139;28;20436;-29
2022/04/09 06:04:07;;;;;;;0.20;0.20;;;;;;;19.21;39.30;100536.19;5098365;28;20040;-30
2022/04/09 06:06:33;;;;;;;0.20;0.20;;;;;;;19.23;39.39;100549.69;5079642;28;20123;-29
2022/04/09 06:08:59;;;;;;;0.20;0.20;;;;;;;19.22;39.22;100548.03;5086314;28;20059;-33
2022/04/09 06:11:24;;;;;;;0.20;0.20;;;;;;;19.21;39.30;100551.91;5104097;28;20063;-30
2022/04/09 06:13:50;;;;;;;0.20;0.20;;;;;;;19.22;39.40;100556.31;5098280;28;20043;-29
2022/04/09 06:16:16;;;;;;;0.20;0.20;;;;;;;19.21;39.31;100551.91;5097934;28;20085;-29
2022/04/09 06:18:42;;;;;;;0.20;0.20;;;;;;;19.22;39.28;100562.66;5099228;28;20044;-30
2022/04/09 06:21:09;;;;;;;0.20;0.20;;;;;;;19.22;39.60;100559.91;5094810;28;20056;-30
2022/04/09 06:23:34;;;;;;;0.20;0.20;;;;;;;19.21;39.27;100560.19;5101494;28;20103;-30
2022/04/09 06:26:00;;;;;;;0.20;0.20;;;;;;;19.23;39.48;100574.53;5094604;28;20075;-30
2022/04/09 06:28:26;;;;;;;0.20;0.20;;;;;;;19.21;39.36;100577.59;5081679;28;20043;-30
2022/04/09 06:30:52;;;;;;;0.20;0.20;;;;;;;19.21;39.57;100571.22;5100974;28;20399;-32
2022/04/09 06:33:18;;;;;;;0.20;0.20;;;;;;;19.22;39.29;100583.94;5080368;28;20083;-30
2022/04/09 06:35:44;;;;;;;0.20;0.20;;;;;;;19.20;39.42;100586.97;5098861;28;20093;-29
2022/04/09 06:38:10;;;;;;;0.20;0.20;;;;;;;19.21;39.60;100590.53;5094562;28;20040;-29
2022/04/09 06:40:35;;;;;;;0.20;0.20;;;;;;;19.21;39.48;100591.41;5096440;28;20044;-29
2022/04/09 06:43:01;;;;;;;0.20;0.20;;;;;;;19.22;39.50;100593.03;5097418;28;20056;-30
2022/04/09 06:45:27;;;;;;;0.20;0.20;;;;;;;19.21;39.32;100593.31;5097064;28;20048;-29
2022/04/09 06:47:54;;;;;;;0.20;0.20;;;;;;;19.21;39.24;100604.34;5098412;28;20151;-29
2022/04/09 06:50:20;;;;;;;0.20;0.20;;;;;;;19.20;39.40;100600.78;5095475;28;20051;-29
2022/04/09 06:52:46;;;;;;;0.20;0.20;;;;;;;19.21;39.64;100604.34;5095074;28;20039;-29
2022/04/09 06:55:12;;;;;;;0.20;0.20;;;;;;;19.20;39.53;100605.47;5098495;28;20105;-29
2022/04/09 06:57:38;;;;;;;0.20;0.20;;;;;;;19.21;39.58;100607.97;5099339;28;20695;-30
2022/04/09 07:00:07;;;;;;;0.20;0.20;;;;;;;19.20;39.61;100619.28;5065669;28;20134;-30
2022/04/09 07:02:33;;;;;;;0.20;0.20;;;;;;;19.20;39.32;100611.00;5081020;28;20072;-31
2022/04/09 07:04:59;;;;;;;0.20;0.20;;;;;;;19.20;39.29;100619.28;5099270;28;20051;-31
2022/04/09 07:07:26;;;;;;;0.20;0.20;;;;;;;19.19;39.33;100626.72;5087908;28;20052;-30
2022/04/09 07:10:02;;;;;;;0.20;0.20;;;;;;;19.20;39.61;100631.13;5097333;28;20048;-31
2022/04/09 07:12:28;;;;;;;0.20;0.20;;;;;;;19.19;39.51;100629.50;5091617;28;20131;-30
2022/04/09 07:14:53;;;;;;;0.20;0.20;;;;;;;19.19;39.62;100629.50;5095352;28;20379;-30
2022/04/09 07:17:20;;;;;;;0.20;0.20;;;;;;;19.20;39.53;100633.06;5100103;28;20047;-30
2022/04/09 07:19:46;;;;;;;0.20;0.20;;;;;;;19.19;39.23;100637.78;5095373;28;20569;-29
2022/04/09 07:22:12;;;;;;;0.20;0.20;;;;;;;19.19;39.53;100639.72;5084471;28;20122;-30
2022/04/09 07:24:38;;;;;;;0.20;0.20;;;;;;;19.19;39.57;100646.06;5104620;28;20671;-31
2022/04/09 07:27:03;;;;;;;0.28;0.28;;;;;;;19.19;39.43;100646.06;5100670;28;21134;-29
2022/04/09 07:29:29;;;;;;;0.20;0.20;;;;;;;19.19;39.25;100662.63;5094265;28;20506;-31
2022/04/09 07:31:55;;;;;;;0.20;0.20;;;;;;;19.20;39.38;100661.50;5098859;28;20164;-30
2022/04/09 07:34:21;;;;;;;0.20;0.20;;;;;;;19.20;39.35;100661.50;5098818;28;20040;-29
2022/04/09 07:36:47;;;;;;;0.20;0.20;;;;;;;19.19;39.46;100662.63;5079755;28;21265;-31
2022/04/09 07:39:13;;;;;;;0.20;0.20;;;;;;;19.20;39.25;100667.03;5100502;28;20093;-29
2022/04/09 07:41:38;;;;;;;0.20;0.20;;;;;;;19.19;39.48;100668.13;5096339;28;20099;-30
2022/04/09 07:44:04;;;;;;;0.20;0.20;;;;;;;19.19;39.54;100668.13;5079869;28;20133;-29
2022/04/09 07:46:30;;;;;;;0.20;0.20;;;;;;;19.18;39.35;100672.03;5095028;28;20047;-29
2022/04/09 07:48:58;;;;;;;0.20;0.20;;;;;;;19.19;39.60;100676.41;5077188;28;20066;-32
2022/04/09 07:51:23;;;;;;;0.20;0.20;;;;;;;19.19;39.42;100683.88;5075660;28;20482;-30
2022/04/09 07:53:49;;;;;;;0.20;0.20;;;;;;;19.18;39.86;100685.81;5092538;28;20052;-29
2022/04/09 07:56:15;;;;;;;0.20;0.20;;;;;;;19.19;39.48;100672.84;5095837;28;20040;-29
2022/04/09 07:58:43;;;;;;;0.20;0.20;;;;;;;19.17;39.37;100684.19;5097860;28;20044;-30
2022/04/09 08:01:09;;;;;;;0.20;0.20;;;;;;;19.17;39.55;100678.66;5081534;28;20134;-30
2022/04/09 08:03:34;;;;;;;0.20;0.20;;;;;;;19.18;39.32;100682.25;5081413;28;20036;-30
2022/04/09 08:06:00;;;;;;;0.20;0.20;;;;;;;19.18;39.36;100690.53;5095480;28;20051;-30
2022/04/09 08:08:26;;;;;;;0.20;0.20;;;;;;;19.19;39.58;100692.16;5095657;28;20059;-29
2022/04/09 08:10:51;;;;;;;0.20;0.20;;;;;;;19.20;39.28;100702.09;5093828;28;20069;-30
2022/04/09 08:13:18;;;;;;;0.20;0.20;;;;;;;19.19;39.28;100703.22;5096831;28;20100;-31
2022/04/09 08:15:44;;;;;;;0.20;0.20;;;;;;;19.18;39.29;100713.44;5098330;28;20044;-29
2022/04/09 08:18:11;;;;;;;0.20;0.20;;;;;;;19.18;39.65;100715.38;5100667;28;20048;-31
2022/04/09 08:20:56;;;;;;;0.20;0.20;;;;;;;19.18;39.33;100718.94;5078775;28;20055;-30
2022/04/09 08:23:22;;;;;;;0.20;0.20;;;;;;;19.18;39.57;100732.75;5096789;28;20035;-30
2022/04/09 08:25:48;;;;;;;0.20;0.20;;;;;;;19.18;39.36;100729.16;5097552;28;20334;-31
2022/04/09 08:28:14;;;;;;;0.20;0.20;;;;;;;19.17;39.45;100733.88;5096267;28;20075;-29
2022/04/09 08:30:41;;;;;;;0.20;0.20;;;;;;;19.17;39.54;100731.09;5096609;28;20055;-30
2022/04/09 08:33:07;;;;;;;0.20;0.20;;;;;;;19.18;39.35;100742.97;5095118;28;20138;-29
2022/04/09 08:35:33;;;;;;;0.20;0.20;;;;;;;19.19;39.45;100730.81;5094779;28;20117;-30
2022/04/09 08:37:58;;;;;;;0.20;0.20;;;;;;;19.17;39.34;100727.50;5096893;28;20185;-31
2022/04/09 08:40:25;;;;;;;0.20;0.20;;;;;;;19.17;39.36;100739.38;5092319;28;20044;-31
2022/04/09 08:42:51;;;;;;;0.20;0.20;;;;;;;19.17;39.64;100744.06;5091394;28;20078;-30
2022/04/09 08:45:17;;;;;;;0.20;0.20;;;;;;;19.17;39.55;100738.53;5095324;28;20048;-28
2022/04/09 08:47:43;;;;;;;0.25;0.25;;;;;;;19.18;39.35;100754.00;5078075;28;20495;-29
2022/04/09 08:50:11;;;;;;;0.20;0.20;;;;;;;19.18;39.57;100751.25;5094971;28;20612;-29
2022/04/09 08:52:40;;;;;;;0.20;0.20;;;;;;;19.18;39.55;100751.25;5062682;28;20040;-30
2022/04/09 08:55:07;;;;;;;0.20;0.20;;;;;;;19.18;39.35;100756.78;5093618;28;20488;-29
2022/04/09 08:57:34;;;;;;;0.20;0.20;;;;;;;19.18;39.27;100770.59;5094123;28;20131;-31
2022/04/09 09:00:12;;;;;;;0.20;0.20;;;;;;;19.18;39.50;100762.28;5081043;28;20166;-30
2022/04/09 09:02:47;;;;;;;0.20;0.20;;;;;;;19.17;39.64;100760.63;5072413;28;20189;-30
2022/04/09 09:08:07;;;;;;;0.20;0.20;;;;;;;19.16;39.41;100772.78;5174832;27;20637;-28
2022/04/09 09:10:35;;;;;;;0.20;0.20;;;;;;;19.16;39.65;100770.03;5162276;27;20480;-28
2022/04/09 09:13:05;;;;;;;0.20;0.20;;;;;;;19.18;39.32;100778.84;5142703;27;20552;-29
2022/04/09 09:15:44;;;;;;;0.20;0.20;;;;;;;19.16;39.58;100775.53;5144795;27;20042;-28
2022/04/09 09:18:18;;;;;;;0.20;0.20;;;;;;;19.15;39.56;100780.25;5161725;27;20053;-28
2022/04/09 09:20:53;;;;;;;0.20;0.20;;;;;;;19.16;39.42;100781.88;5162529;27;20077;-28
2022/04/09 09:23:22;;;;;;;0.20;0.20;;;;;;;19.14;39.62;100784.13;5142637;27;20500;-28
2022/04/09 09:25:49;;;;;;;0.20;0.20;;;;;;;19.16;39.33;100783.81;5147564;27;20073;-27
2022/04/09 09:28:22;;;;;;;0.20;0.20;;;;;;;19.16;39.50;100779.13;5163197;27;20070;-27
2022/04/09 09:30:49;;;;;;;0.20;0.20;;;;;;;19.15;39.35;100779.41;5141232;27;20070;-27
2022/04/09 09:33:15;;;;;;;0.20;0.20;;;;;;;19.15;39.67;100783.00;5162558;27;20119;-28
2022/04/09 09:36:00;;;;;;;0.20;0.20;;;;;;;19.15;39.31;100785.75;5143528;27;20111;-28
2022/04/09 09:38:27;;;;;;;0.20;0.20;;;;;;;19.14;39.53;100778.59;5141996;27;20047;-28
2022/04/09 09:40:54;;;;;;;0.20;0.20;;;;;;;19.15;39.63;100779.41;5120212;27;20093;-28
2022/04/09 09:43:21;;;;;;;0.20;0.20;;;;;;;19.14;39.61;100773.06;5119461;28;20068;-28
2022/04/09 09:45:48;;;;;;;0.20;0.20;;;;;;;19.14;39.38;100773.06;5141425;27;20125;-29
2022/04/09 09:48:22;;;;;;;0.20;0.20;;;;;;;19.16;39.47;100767.25;5122915;27;20134;-28
2022/04/09 09:50:49;;;;;;;0.20;0.20;;;;;;;19.15;39.28;100768.38;5116796;27;20176;-28
2022/04/09 09:53:14;;;;;;;0.20;0.20;;;;;;;19.15;39.61;100771.13;5122068;27;20453;-28
2022/04/09 09:55:42;;;;;;;0.20;0.20;;;;;;;19.14;39.40;100763.97;5142065;27;20047;-27
2022/04/09 09:58:10;;;;;;;0.20;0.20;;;;;;;19.15;39.29;100760.09;5105572;27;20081;-27
2022/04/09 10:00:35;;;;;;;0.20;0.20;;;;;;;19.14;39.37;100748.22;5140481;27;20074;-28
2022/04/09 10:03:01;;;;;;;0.30;0.30;;;;;;;19.14;39.64;100753.75;5137367;27;20082;-28
2022/04/09 10:05:27;;;;;;;0.20;0.20;;;;;;;19.14;39.27;100752.94;5143242;27;20061;-27
2022/04/09 10:07:56;;;;;;;0.20;0.20;;;;;;;19.15;39.31;100755.41;5140085;27;20102;-28
2022/04/09 10:10:24;;;;;;;0.20;0.20;;;;;;;19.15;39.60;100751.81;5141672;27;20039;-27
2022/04/09 10:12:51;;;;;;;0.20;0.20;;;;;;;19.15;39.36;100757.34;5142716;27;20129;-27
2022/04/09 10:15:17;;;;;;;0.20;0.20;;;;;;;19.15;39.28;100763.69;5144715;27;20122;-27
2022/04/09 10:17:43;;;;;;;0.20;0.20;;;;;;;19.14;39.28;100759.28;5137785;27;20150;-27
2022/04/09 10:20:09;;;;;;;0.20;0.20;;;;;;;19.14;39.37;100780.53;5124891;28;20043;-27
2022/04/09 10:22:46;;;;;;;0.20;0.20;;;;;;;19.14;39.46;100802.63;5128652;28;20047;-27
2022/04/09 10:25:14;;;;;;;0.20;0.20;;;;;;;19.14;39.54;100821.94;5105625;28;20468;-27
2022/04/09 10:27:43;;;;;;;;;;;;;;;19.13;39.41;100807.31;5109846;28;20841;-28
2022/04/09 10:30:18;;;;;;;0.20;0.20;;;;;;;19.13;39.44;100798.19;5124610;28;20015;-27
2022/04/09 10:32:47;;;;;;;0.20;0.20;;;;;;;19.13;39.55;100809.22;5126428;28;20474;-27
2022/04/09 10:35:40;;;;;;;0.20;0.20;;;;;;;19.12;39.57;100797.38;5108961;28;20196;-27
2022/04/09 10:48:48;;;;;;;0.20;0.20;;;;;;;19.13;39.29;100839.59;5159980;27;20128;-23
2022/04/09 10:51:15;;;;;;;0.20;0.20;;;;;;;19.13;39.55;100839.59;5164514;27;20081;-23
2022/04/09 10:53:43;;;;;;;0.20;0.20;;;;;;;19.12;39.34;100818.63;5146066;27;20103;-24
2022/04/09 10:56:27;;;;;;;0.20;0.20;;;;;;;19.12;39.29;100815.88;5124665;27;20078;-24
2022/04/09 11:01:50;;;;;;;0.20;0.20;;;;;;;19.10;39.26;100818.91;5164203;27;20624;-27
2022/04/09 11:07:16;;;;;;;0.20;0.20;;;;;;;19.12;39.42;100813.09;5163848;27;20112;-24
2022/04/09 11:09:59;;;;;;;0.20;0.20;;;;;;;19.10;39.49;100813.41;5137444;27;20638;-24
2022/04/09 11:12:45;;;;;;;0.20;0.20;;;;;;;19.11;39.45;100809.53;5140991;27;20764;-23
2022/04/09 11:15:15;;;;;;;0.20;0.20;;;;;;;19.11;39.38;100800.41;5161016;27;20409;-23
2022/04/09 11:17:43;;;;;;;0.20;0.20;;;;;;;19.11;39.23;100809.53;5121054;27;20086;-23
2022/04/09 11:20:11;;;;;;;0.20;0.20;;;;;;;19.11;39.26;100805.94;5137163;27;20126;-24
2022/04/09 11:22:40;;;;;;;0.20;0.20;;;;;;;19.10;39.39;100809.81;5140657;27;20286;-24
2022/04/09 11:25:08;;;;;;;0.20;0.20;;;;;;;19.09;39.46;100809.00;5138431;27;20179;-25
2022/04/09 11:27:34;;;;;;;0.20;0.20;;;;;;;19.09;39.31;100797.94;5159935;27;20133;-24
2022/04/09 11:30:00;;;;;;;0.20;0.20;;;;;;;19.09;39.23;100792.44;5137560;27;20066;-24
2022/04/09 11:32:26;;;;;;;0.20;0.20;;;;;;;19.10;39.37;100785.78;5143483;27;20050;-24
2022/04/09 11:34:54;;;;;;;0.20;0.20;;;;;;;19.10;39.36;100785.78;5158202;27;20483;-24
2022/04/09 11:37:21;;;;;;;0.20;0.20;;;;;;;19.11;39.39;100790.19;5147568;27;20063;-24
2022/04/09 11:39:47;;;;;;;0.20;0.20;;;;;;;19.10;39.30;100777.50;5119412;27;21140;-24
2022/04/09 11:42:13;;;;;;;0.20;0.20;;;;;;;19.10;39.35;100784.97;5119705;27;20172;-25
2022/04/09 11:44:39;;;;;;;0.20;0.20;;;;;;;19.11;39.31;100786.63;5121776;27;20071;-24
2022/04/09 11:47:24;;;;;;;0.20;0.20;;;;;;;19.11;39.47;100787.44;5140053;27;20049;-24